Aviation Digital Data Service (ADDS)

Output produced by TAFs form (0220 UTC 23 October 2014)
found at http://aviationweather.gov/adds/tafs/
 
KAEG 222329Z 2300/2324 23005KT P6SM FEW080 
     FM230200 VRB05KT P6SM SKC 
     FM232000 31006KT P6SM SKC